Time;durP1;ratioP1;P1;durP2;ratioP2;P2;SDS_P1;SDS_P2;PMS_P1;PMS_P2;Temp;Humidity;BMP_temperature;BMP_pressure;BME280_temperature;BME280_humidity;BME280_pressure;Samples;Min_cycle;Max_cycle;Signal;HPM_P1;HPM_P2
2022/11/18 00:00:31;;;;;;;;;;;;;;;-1.46;76.14;99575.73;116544;1291;22498;-69
2022/11/18 00:03:22;;;;;;;;;;;;;;;-1.48;75.92;99572.13;116549;1295;22476;-69
2022/11/18 00:06:16;;;;;;;;;;;;;;;-1.51;75.76;99575.39;116507;1303;22426;-69
2022/11/18 00:09:05;;;;;;;;;;;;;;;-1.56;76.03;99572.14;116546;1291;22442;-68
2022/11/18 00:15:04;;;;;;;;;;;;;;;-1.60;75.99;99570.61;116542;1285;22438;-68
2022/11/18 00:17:54;;;;;;;;;;;;;;;-1.63;75.96;99567.52;116548;1303;22473;-69
2022/11/18 00:20:44;;;;;;;;;;;;;;;-1.65;75.86;99565.66;116564;1288;25479;-68
2022/11/18 00:23:36;;;;;;;;;;;;;;;-1.67;75.89;99570.10;116516;1303;22432;-68
2022/11/18 00:26:26;;;;;;;;;;;;;;;-1.69;76.04;99567.70;116558;1292;22496;-68
2022/11/18 00:29:16;;;;;;;;;;;;;;;-1.69;76.16;99569.25;116568;1296;22432;-68
2022/11/18 00:32:07;;;;;;;;;;;;;;;-1.69;75.97;99564.13;116551;1296;24571;-69
2022/11/18 00:34:55;;;;;;;;;;;;;;;-1.67;76.06;99572.50;116576;1303;22447;-69
2022/11/18 00:37:43;;;;;;;;;;;;;;;-1.62;75.94;99570.45;116548;1300;22430;-69
2022/11/18 00:40:32;;;;;;;;;;;;;;;-1.57;75.77;99564.96;116560;1285;22436;-69
2022/11/18 00:43:25;;;;;;;;;;;;;;;-1.47;75.54;99562.71;116559;1291;24234;-69
2022/11/18 00:46:13;;;;;;;;;;;;;;;-1.38;75.57;99553.11;116609;1288;22446;-69
2022/11/18 00:49:02;;;;;;;;;;;;;;;-1.33;74.97;99551.21;116542;1291;22462;-69
2022/11/18 00:51:50;;;;;;;;;;;;;;;-1.33;75.08;99552.08;116535;1297;22486;-68
2022/11/18 00:54:39;;;;;;;;;;;;;;;-1.32;74.68;99551.39;116554;1303;22444;-68
2022/11/18 00:57:26;;;;;;;;;;;;;;;-1.31;74.73;99555.15;116576;1289;22452;-69
2022/11/18 01:00:16;;;;;;;;;;;;;;;-1.33;74.31;99552.76;116556;1292;22433;-68
2022/11/18 01:03:06;;;;;;;;;;;;;;;-1.37;74.56;99552.27;116582;1294;22460;-68
2022/11/18 01:05:56;;;;;;;;;;;;;;;-1.37;74.67;99550.04;116591;1282;22443;-67
2022/11/18 01:08:48;;;;;;;;;;;;;;;-1.40;74.29;99551.06;116536;1303;22445;-68
2022/11/18 01:14:47;;;;;;;;;;;;;;;-1.43;74.44;99554.67;116556;1303;22447;-68
2022/11/18 01:17:36;;;;;;;;;;;;;;;-1.45;74.60;99555.52;116521;1298;22446;-67
2022/11/18 01:20:27;;;;;;;;;;;;;;;-1.45;74.62;99551.25;116590;1303;22447;-68
2022/11/18 01:23:22;;;;;;;;;;;;;;;-1.47;74.53;99548.52;116572;1285;22440;-69
2022/11/18 01:26:13;;;;;;;;;;;;;;;-1.48;74.70;99545.79;116571;1303;22450;-69
2022/11/18 01:29:04;;;;;;;;;;;;;;;-1.49;74.70;99549.71;116568;1277;22443;-69
2022/11/18 01:31:54;;;;;;;;;;;;;;;-1.53;74.69;99549.38;116550;1294;22545;-68
2022/11/18 01:34:45;;;;;;;;;;;;;;;-1.55;74.75;99551.79;116577;1285;22481;-69
2022/11/18 01:37:32;;;;;;;;;;;;;;;-1.57;74.65;99545.30;116557;1296;25429;-69
2022/11/18 01:40:24;;;;;;;;;;;;;;;-1.58;75.07;99542.91;116525;1291;22439;-69
2022/11/18 01:43:16;;;;;;;;;;;;;;;-1.58;75.08;99542.73;116580;1288;23049;-69
2022/11/18 01:46:09;;;;;;;;;;;;;;;-1.59;75.09;99539.98;116513;1303;22459;-68
2022/11/18 01:49:01;;;;;;;;;;;;;;;-1.61;75.18;99540.69;116523;1290;24251;-67
2022/11/18 01:51:56;;;;;;;;;;;;;;;-1.63;75.49;99533.33;116593;1302;22439;-68
2022/11/18 01:54:47;;;;;;;;;;;;;;;-1.64;75.38;99526.33;116538;1285;22446;-68
2022/11/18 01:57:34;;;;;;;;;;;;;;;-1.66;75.51;99522.57;116539;1285;25996;-70
2022/11/18 02:00:28;;;;;;;;;;;;;;;-1.66;75.45;99525.48;116570;1303;22448;-69
2022/11/18 02:03:18;;;;;;;;;;;;;;;-1.66;75.61;99523.77;116534;1303;25337;-69
2022/11/18 02:06:10;;;;;;;;;;;;;;;-1.68;75.54;99515.73;116392;1304;22456;-68
2022/11/18 02:09:02;;;;;;;;;;;;;;;-1.67;75.87;99512.14;116546;1303;22443;-70
2022/11/18 02:11:53;;;;;;;;;;;;;;;-1.68;76.09;99508.21;116587;1299;22754;-70
2022/11/18 02:14:44;;;;;;;;;;;;;;;-1.64;76.00;99514.70;116542;1284;22443;-69
2022/11/18 02:17:38;;;;;;;;;;;;;;;-1.57;75.98;99513.65;116576;1300;22553;-67
2022/11/18 02:20:36;;;;;;;;;;;;;;;-1.47;76.00;99517.21;116569;1303;22425;-68
2022/11/18 02:24:01;;;;;;;;;;;;;;;-1.39;75.74;99510.36;116541;1303;22516;-69
2022/11/18 02:27:24;;;;;;;;;;;;;;;-1.29;75.94;99510.30;116567;1296;22449;-69
2022/11/18 02:30:15;;;;;;;;;;;;;;;-1.24;75.76;99507.55;116573;1294;22451;-68
2022/11/18 02:33:05;;;;;;;;;;;;;;;-1.22;75.59;99508.75;116564;1288;22467;-69
2022/11/18 02:35:56;;;;;;;;;;;;;;;-1.24;75.45;99512.17;116576;1304;22458;-70
2022/11/18 02:38:45;;;;;;;;;;;;;;;-1.27;75.54;99513.90;116548;1288;22447;-70
2022/11/18 02:41:35;;;;;;;;;;;;;;;-1.28;75.63;99520.91;116591;1285;24239;-70
2022/11/18 02:44:27;;;;;;;;;;;;;;;-1.31;75.88;99517.16;116569;1303;22500;-69
2022/11/18 02:47:16;;;;;;;;;;;;;;;-1.32;75.66;99515.45;116534;1301;22449;-69
2022/11/18 02:50:09;;;;;;;;;;;;;;;-1.34;75.88;99510.33;116562;1301;24369;-69
2022/11/18 02:52:57;;;;;;;;;;;;;;;-1.36;75.86;99509.99;116533;1291;24261;-69
2022/11/18 02:55:45;;;;;;;;;;;;;;;-1.39;75.80;99509.83;116402;1293;22431;-70
2022/11/18 02:58:33;;;;;;;;;;;;;;;-1.43;75.83;99507.13;116561;1281;22439;-68
2022/11/18 03:01:21;;;;;;;;;;;;;;;-1.45;76.03;99505.91;116610;1300;22518;-68
2022/11/18 03:04:08;;;;;;;;;;;;;;;-1.46;76.10;99506.78;116620;1303;22528;-68
2022/11/18 03:07:00;;;;;;;;;;;;;;;-1.48;76.30;99505.59;116570;1296;22550;-69
2022/11/18 03:09:52;;;;;;;;;;;;;;;-1.49;76.25;99507.47;116586;1307;25172;-69
2022/11/18 03:12:45;;;;;;;;;;;;;;;-1.50;76.47;99504.23;116564;1302;24689;-69
2022/11/18 03:15:36;;;;;;;;;;;;;;;-1.51;76.48;99501.66;116576;1302;22443;-69
2022/11/18 03:18:28;;;;;;;;;;;;;;;-1.47;76.46;99498.91;116577;1288;22441;-69
2022/11/18 03:21:19;;;;;;;;;;;;;;;-1.41;76.57;99495.64;116549;1304;22448;-68
2022/11/18 03:24:10;;;;;;;;;;;;;;;-1.30;76.51;99496.63;116555;1287;22455;-68
2022/11/18 03:27:02;;;;;;;;;;;;;;;-1.22;76.78;99497.45;116586;1281;22440;-69
2022/11/18 03:29:55;;;;;;;;;;;;;;;-1.21;76.34;99495.73;116556;1289;22444;-69
2022/11/18 03:32:45;;;;;;;;;;;;;;;-1.20;76.27;99493.67;116551;1296;22419;-69
2022/11/18 03:35:38;;;;;;;;;;;;;;;-1.22;76.22;99490.43;116552;1288;25203;-70
2022/11/18 03:38:28;;;;;;;;;;;;;;;-1.27;76.21;99490.63;116556;1289;22437;-70
2022/11/18 03:41:15;;;;;;;;;;;;;;;-1.33;76.19;99492.35;116612;1307;22444;-69
2022/11/18 03:44:06;;;;;;;;;;;;;;;-1.38;76.27;99489.83;116590;1282;22628;-68
2022/11/18 03:47:00;;;;;;;;;;;;;;;-1.44;76.22;99485.91;116616;1286;22432;-68
2022/11/18 03:49:52;;;;;;;;;;;;;;;-1.49;76.43;99485.58;116626;1288;22442;-69
2022/11/18 03:52:45;;;;;;;;;;;;;;;-1.54;76.19;99488.34;116517;1304;22490;-68
2022/11/18 03:55:40;;;;;;;;;;;;;;;-1.57;76.34;99484.41;116573;1304;25198;-69
2022/11/18 03:58:32;;;;;;;;;;;;;;;-1.57;76.18;99484.92;116564;1280;22514;-68
2022/11/18 04:01:21;;;;;;;;;;;;;;;-1.53;76.00;99486.45;116568;1298;22501;-68
2022/11/18 04:04:10;;;;;;;;;;;;;;;-1.49;76.31;99487.11;116570;1288;22439;-69
2022/11/18 04:07:01;;;;;;;;;;;;;;;-1.46;75.95;99485.75;116545;1289;24260;-70
2022/11/18 04:09:50;;;;;;;;;;;;;;;-1.48;76.04;99488.65;116624;1300;24988;-70
2022/11/18 04:12:42;;;;;;;;;;;;;;;-1.49;75.84;99492.23;116535;1289;22459;-69
2022/11/18 04:15:32;;;;;;;;;;;;;;;-1.50;76.13;99493.45;116543;1292;24437;-70
2022/11/18 04:18:22;;;;;;;;;;;;;;;-1.50;75.96;99491.74;116516;1301;22439;-69
2022/11/18 04:21:16;;;;;;;;;;;;;;;-1.55;75.92;99494.84;116562;1303;22462;-69
2022/11/18 04:24:04;;;;;;;;;;;;;;;-1.58;76.07;99494.85;116573;1302;22449;-70
2022/11/18 04:26:51;;;;;;;;;;;;;;;-1.62;75.98;99498.45;116593;1286;22435;-70
2022/11/18 04:29:44;;;;;;;;;;;;;;;-1.68;76.34;99497.61;116526;1303;22457;-70
2022/11/18 04:32:32;;;;;;;;;;;;;;;-1.73;76.62;99497.96;116553;1302;22448;-69
2022/11/18 04:35:23;;;;;;;;;;;;;;;-1.72;76.60;99493.69;116569;1283;22523;-68
2022/11/18 04:38:12;;;;;;;;;;;;;;;-1.66;76.81;99489.23;116555;1303;22440;-68
2022/11/18 04:41:01;;;;;;;;;;;;;;;-1.61;77.34;99484.42;116548;1303;25846;-70
2022/11/18 04:43:53;;;;;;;;;;;;;;;-1.55;77.22;99485.26;116586;1302;22452;-70
2022/11/18 04:46:44;;;;;;;;;;;;;;;-1.51;77.28;99486.45;116567;1303;22451;-69
2022/11/18 04:49:32;;;;;;;;;;;;;;;-1.50;77.30;99488.14;116607;1298;22754;-69
2022/11/18 04:52:19;;;;;;;;;;;;;;;-1.53;77.12;99486.96;116569;1304;22491;-69
2022/11/18 04:55:09;;;;;;;;;;;;;;;-1.57;76.90;99484.92;116577;1291;22463;-69
2022/11/18 04:57:58;;;;;;;;;;;;;;;-1.59;77.27;99483.73;116575;1295;22442;-69
2022/11/18 05:00:46;;;;;;;;;;;;;;;-1.61;77.07;99486.48;116204;1304;454509;-69
2022/11/18 05:03:33;;;;;;;;;;;;;;;-1.65;77.30;99487.52;116594;1288;22459;-69
2022/11/18 05:06:21;;;;;;;;;;;;;;;-1.69;77.36;99486.48;116520;1291;22414;-69
2022/11/18 05:09:11;;;;;;;;;;;;;;;-1.73;77.73;99485.14;116600;1291;24513;-69
2022/11/18 05:15:05;;;;;;;;;;;;;;;-1.79;77.72;99483.61;116572;1282;22433;-69
2022/11/18 05:17:52;;;;;;;;;;;;;;;-1.84;77.65;99487.56;116560;1291;22454;-69
2022/11/18 05:20:43;;;;;;;;;;;;;;;-1.86;77.55;99489.96;116594;1285;22514;-68
2022/11/18 05:23:32;;;;;;;;;;;;;;;-1.88;77.77;99487.73;116561;1297;24372;-68
2022/11/18 05:26:22;;;;;;;;;;;;;;;-1.89;77.98;99486.54;116572;1288;24299;-69
2022/11/18 05:29:13;;;;;;;;;;;;;;;-1.90;77.75;99489.45;116550;1294;22437;-68
2022/11/18 05:32:03;;;;;;;;;;;;;;;-1.91;77.94;99486.21;116544;1288;25411;-69
2022/11/18 05:34:52;;;;;;;;;;;;;;;-1.91;78.03;99485.36;116559;1296;24238;-68
2022/11/18 05:37:45;;;;;;;;;;;;;;;-1.89;78.09;99480.56;116513;1301;22566;-68
2022/11/18 05:40:34;;;;;;;;;;;;;;;-1.85;77.89;99482.60;116563;1284;22440;-70
2022/11/18 05:43:25;;;;;;;;;;;;;;;-1.78;78.04;99476.42;116574;1277;22442;-69
2022/11/18 05:46:15;;;;;;;;;;;;;;;-1.70;78.28;99471.96;116590;1303;22454;-68
2022/11/18 05:49:02;;;;;;;;;;;;;;;-1.67;78.18;99475.73;116564;1303;22461;-68
2022/11/18 05:51:50;;;;;;;;;;;;;;;-1.65;78.14;99474.01;116558;1303;25357;-68
2022/11/18 05:54:42;;;;;;;;;;;;;;;-1.67;78.01;99475.05;116602;1303;22443;-69
2022/11/18 05:57:32;;;;;;;;;;;;;;;-1.69;78.09;99478.27;116413;1291;22440;-69
2022/11/18 06:00:22;;;;;;;;;;;;;;;-1.70;77.88;99471.80;116545;1300;22425;-68
2022/11/18 06:03:12;;;;;;;;;;;;;;;-1.74;77.48;99477.44;116580;1284;22465;-69
2022/11/18 06:06:00;;;;;;;;;;;;;;;-1.76;77.56;99472.67;116548;1296;24264;-70
2022/11/18 06:08:57;;;;;;;;;;;;;;;-1.76;77.74;99479.35;116394;1294;22449;-69
2022/11/18 06:11:48;;;;;;;;;;;;;;;-1.78;77.59;99480.54;116577;1283;22491;-70
2022/11/18 06:14:39;;;;;;;;;;;;;;;-1.79;77.55;99479.70;116632;1281;22443;-69
2022/11/18 06:17:31;;;;;;;;;;;;;;;-1.79;77.62;99478.66;116589;1284;22450;-69
2022/11/18 06:20:21;;;;;;;;;;;;;;;-1.81;77.36;99479.36;116576;1303;22441;-69
2022/11/18 06:23:13;;;;;;;;;;;;;;;-1.84;77.15;99479.70;116587;1303;22429;-70
2022/11/18 06:26:02;;;;;;;;;;;;;;;-1.88;77.18;99482.09;116606;1302;22442;-69
2022/11/18 06:28:51;;;;;;;;;;;;;;;-1.87;77.34;99479.88;116579;1276;22450;-69
2022/11/18 06:31:38;;;;;;;;;;;;;;;-1.82;77.27;99480.89;116543;1303;22495;-69
2022/11/18 06:34:29;;;;;;;;;;;;;;;-1.74;77.21;99487.37;116538;1304;22481;-69
2022/11/18 06:37:25;;;;;;;;;;;;;;;-1.67;77.26;99490.08;116570;1285;22437;-69
2022/11/18 06:40:16;;;;;;;;;;;;;;;-1.60;77.11;99492.28;116587;1285;24274;-68
2022/11/18 06:49:22;;;;;;;;;;;;;;;-1.58;77.29;99493.47;116593;1291;22625;-69
2022/11/18 06:52:10;;;;;;;;;;;;;;;-1.59;77.14;99494.67;116601;1285;22450;-69
2022/11/18 06:54:59;;;;;;;;;;;;;;;-1.60;77.43;99497.08;116535;1301;22471;-69
2022/11/18 06:57:47;;;;;;;;;;;;;;;-1.63;77.03;99503.92;116565;1292;22431;-68
2022/11/18 07:00:35;;;;;;;;;;;;;;;-1.66;77.22;99504.27;116554;1295;22460;-67
2022/11/18 07:03:25;;;;;;;;;;;;;;;-1.72;77.01;99506.52;116377;1294;22560;-69
2022/11/18 07:06:16;;;;;;;;;;;;;;;-1.75;76.88;99508.06;116587;1282;24293;-70
2022/11/18 07:09:10;;;;;;;;;;;;;;;-1.75;76.91;99503.10;116560;1303;23035;-68
2022/11/18 07:11:59;;;;;;;;;;;;;;;-1.76;76.59;99509.95;116549;1285;22467;-68
2022/11/18 07:14:50;;;;;;;;;;;;;;;-1.73;76.68;99508.21;116564;1288;22443;-67
2022/11/18 07:17:37;;;;;;;;;;;;;;;-1.67;76.65;99506.66;116580;1282;22439;-68
2022/11/18 07:20:28;;;;;;;;;;;;;;;-1.57;76.36;99506.65;116578;1294;22432;-69
2022/11/18 07:23:20;;;;;;;;;;;;;;;-1.45;76.05;99505.58;116564;1303;22561;-69
2022/11/18 07:26:09;;;;;;;;;;;;;;;-1.38;75.65;99507.27;116556;1291;22473;-69
2022/11/18 07:29:02;;;;;;;;;;;;;;;-1.35;75.35;99505.03;116556;1279;22503;-68
2022/11/18 07:31:50;;;;;;;;;;;;;;;-1.32;75.68;99507.77;116593;1303;22464;-67
2022/11/18 07:34:38;;;;;;;;;;;;;;;-1.30;75.62;99507.58;116531;1303;22472;-69
2022/11/18 07:37:25;;;;;;;;;;;;;;;-1.28;75.25;99507.92;116349;1288;22449;-70
2022/11/18 07:40:16;;;;;;;;;;;;;;;-1.26;75.01;99510.64;116353;1285;22450;-68
2022/11/18 07:43:06;;;;;;;;;;;;;;;-1.26;74.38;99514.23;116280;1303;24381;-68
2022/11/18 07:45:55;;;;;;;;;;;;;;;-1.25;74.59;99514.91;116357;1303;22467;-69
2022/11/18 07:48:43;;;;;;;;;;;;;;;-1.20;74.88;99515.58;116314;1299;22441;-68
2022/11/18 07:51:32;;;;;;;;;;;;;;;-1.14;74.58;99516.40;116345;1285;22481;-68
2022/11/18 07:54:22;;;;;;;;;;;;;;;-1.11;74.50;99522.90;116337;1299;22580;-69
2022/11/18 07:57:09;;;;;;;;;;;;;;;-1.03;73.95;99523.38;116351;1303;23784;-69
2022/11/18 07:59:59;;;;;;;;;;;;;;;-0.97;73.69;99522.66;116316;1297;25346;-66
2022/11/18 08:02:49;;;;;;;;;;;;;;;-0.88;73.98;99523.64;116341;1281;22437;-68
2022/11/18 08:05:39;;;;;;;;;;;;;;;-0.81;73.96;99522.06;116397;1296;22450;-69
2022/11/18 08:08:30;;;;;;;;;;;;;;;-0.73;73.85;99525.10;116410;1302;22753;-68
2022/11/18 08:11:18;;;;;;;;;;;;;;;-0.68;73.73;99525.76;116408;1291;22432;-69
2022/11/18 08:14:09;;;;;;;;;;;;;;;-0.65;73.13;99530.36;116352;1303;22556;-67
2022/11/18 08:16:57;;;;;;;;;;;;;;;-0.67;72.46;99535.69;116343;1285;22492;-69
2022/11/18 08:19:47;;;;;;;;;;;;;;;-0.72;72.14;99537.77;116346;1287;22452;-68
2022/11/18 08:22:35;;;;;;;;;;;;;;;-0.78;72.51;99536.27;116310;1292;22433;-68
2022/11/18 08:25:23;;;;;;;;;;;;;;;-0.80;72.32;99546.36;116272;1296;22551;-69
2022/11/18 08:28:11;;;;;;;;;;;;;;;-0.83;72.23;99547.77;116339;1300;25242;-68
2022/11/18 08:31:00;;;;;;;;;;;;;;;-0.85;72.01;99551.70;116342;1288;22576;-69
2022/11/18 08:33:49;;;;;;;;;;;;;;;-0.88;72.24;99556.86;116305;1303;25385;-68
2022/11/18 08:36:39;;;;;;;;;;;;;;;-0.93;71.95;99561.16;116339;1303;22438;-69
2022/11/18 08:39:30;;;;;;;;;;;;;;;-0.94;72.29;99560.14;116347;1292;25361;-69
2022/11/18 08:42:24;;;;;;;;;;;;;;;-0.93;72.40;99559.80;116356;1285;22496;-70
2022/11/18 08:45:14;;;;;;;;;;;;;;;-0.91;72.57;99558.59;116354;1303;22447;-69
2022/11/18 08:48:05;;;;;;;;;;;;;;;-0.90;72.64;99563.04;116346;1303;22450;-70
2022/11/18 08:50:58;;;;;;;;;;;;;;;-0.91;72.48;99564.06;116357;1303;22448;-69
2022/11/18 08:53:47;;;;;;;;;;;;;;;-0.95;72.02;99561.00;116344;1284;24221;-69
2022/11/18 08:56:44;;;;;;;;;;;;;;;-0.95;72.48;99565.63;116330;1285;22444;-69
2022/11/18 08:59:31;;;;;;;;;;;;;;;-0.95;72.76;99564.59;116325;1303;22445;-68
2022/11/18 09:02:23;;;;;;;;;;;;;;;-0.95;72.61;99565.60;116332;1294;22458;-69
2022/11/18 09:05:23;;;;;;;;;;;;;;;-0.92;72.26;99568.36;116335;1299;22458;-69
2022/11/18 09:08:14;;;;;;;;;;;;;;;-0.86;72.35;99569.52;116333;1282;22446;-69
2022/11/18 09:11:07;;;;;;;;;;;;;;;-0.80;71.93;99571.20;116356;1282;22445;-68
2022/11/18 09:13:57;;;;;;;;;;;;;;;-0.70;72.44;99565.67;116357;1303;22508;-67
2022/11/18 09:16:49;;;;;;;;;;;;;;;-0.60;72.39;99569.91;116369;1283;24260;-67
2022/11/18 09:19:37;;;;;;;;;;;;;;;-0.50;72.40;99572.06;116374;1297;25856;-67
2022/11/18 09:22:28;;;;;;;;;;;;;;;-0.48;72.15;99565.04;116292;1303;25375;-70
2022/11/18 09:25:19;;;;;;;;;;;;;;;-0.44;71.96;99566.38;116368;1284;22449;-69
2022/11/18 09:28:08;;;;;;;;;;;;;;;-0.44;71.25;99563.64;116351;1283;22429;-69
2022/11/18 09:31:00;;;;;;;;;;;;;;;-0.48;71.10;99558.36;116322;1285;22431;-68
2022/11/18 09:33:49;;;;;;;;;;;;;;;-0.51;70.97;99552.89;116323;1295;22470;-68
2022/11/18 09:36:45;;;;;;;;;;;;;;;-0.49;71.12;99550.64;116310;1295;22727;-70
2022/11/18 09:39:36;;;;;;;;;;;;;;;-0.47;71.13;99548.25;116320;1287;22460;-69
2022/11/18 09:42:36;;;;;;;;;;;;;;;-0.44;70.83;99549.92;116342;1278;24089;-69
2022/11/18 09:45:27;;;;;;;;;;;;;;;-0.45;70.84;99548.04;116338;1284;24264;-67
2022/11/18 09:49:11;;;;;;;;;;;;;;;-0.47;70.88;99547.21;116345;1303;22461;-69
2022/11/18 09:51:31;;;;;;;;;;;;;;;-0.49;70.92;99547.91;116330;1303;22454;-68
2022/11/18 09:54:24;;;;;;;;;;;;;;;-0.51;70.92;99542.77;116332;1303;22448;-68
2022/11/18 09:57:19;;;;;;;;;;;;;;;-0.49;71.28;99544.14;116312;1287;22464;-68
2022/11/18 10:00:17;;;;;;;;;;;;;;;-0.47;71.03;99549.27;116318;1303;22446;-68
2022/11/18 10:03:08;;;;;;;;;;;;;;;-0.47;71.01;99543.09;116311;1285;22439;-67
2022/11/18 10:05:58;;;;;;;;;;;;;;;-0.43;71.17;99544.10;116334;1301;22444;-68
2022/11/18 10:08:48;;;;;;;;;;;;;;;-0.39;70.57;99549.56;116333;1284;23691;-69
2022/11/18 10:11:38;;;;;;;;;;;;;;;-0.42;69.56;99549.39;116359;1284;22446;-68
2022/11/18 10:14:28;;;;;;;;;;;;;;;-0.44;69.68;99556.27;116356;1303;22442;-69
2022/11/18 10:17:23;;;;;;;;;;;;;;;-0.41;70.05;99555.91;116356;1291;22443;-69
2022/11/18 10:20:23;;;;;;;;;;;;;;;-0.32;69.81;99560.30;116313;1291;22489;-68
2022/11/18 10:23:16;;;;;;;;;;;;;;;-0.21;70.37;99561.08;116331;1303;22461;-68
2022/11/18 10:26:06;;;;;;;;;;;;;;;-0.08;70.01;99560.11;116329;1292;24249;-68
2022/11/18 10:28:54;;;;;;;;;;;;;;;0.01;69.44;99558.67;116296;1303;22525;-69
2022/11/18 10:31:55;;;;;;;;;;;;;;;0.05;68.51;99564.13;116346;1303;24381;-68
2022/11/18 10:34:55;;;;;;;;;;;;;;;0.08;68.86;99566.52;116310;1277;22481;-68
2022/11/18 10:37:43;;;;;;;;;;;;;;;0.12;68.20;99564.75;116347;1301;22470;-70
2022/11/18 10:40:39;;;;;;;;;;;;;;;0.13;68.18;99566.30;116354;1291;22448;-69
2022/11/18 10:43:44;;;;;;;;;;;;;;;0.15;67.74;99568.17;116346;1296;24260;-69
2022/11/18 10:46:34;;;;;;;;;;;;;;;0.17;67.85;99572.09;116302;1297;22448;-68
2022/11/18 10:49:27;;;;;;;;;;;;;;;0.20;67.30;99577.55;116322;1277;24463;-67
2022/11/18 10:52:18;;;;;;;;;;;;;;;0.20;66.24;99582.70;116332;1284;22472;-69
2022/11/18 10:55:21;;;;;;;;;;;;;;;0.21;66.86;99582.86;116327;1288;22458;-68
2022/11/18 10:58:14;;;;;;;;;;;;;;;0.28;66.81;99585.88;116328;1303;22492;-69
2022/11/18 11:01:08;;;;;;;;;;;;;;;0.23;65.37;99588.84;116347;1297;22459;-67
2022/11/18 11:04:02;;;;;;;;;;;;;;;0.17;65.28;99591.29;116360;1303;24299;-68
2022/11/18 11:06:50;;;;;;;;;;;;;;;0.15;65.37;99594.75;116341;1295;22438;-70
2022/11/18 11:09:39;;;;;;;;;;;;;;;0.12;65.32;99598.21;116319;1285;22466;-69
2022/11/18 11:12:26;;;;;;;;;;;;;;;0.11;65.33;99601.98;116354;1298;22447;-69
2022/11/18 11:15:17;;;;;;;;;;;;;;;0.12;65.54;99602.83;116324;1283;22751;-69
2022/11/18 11:21:15;;;;;;;;;;;;;;;0.12;65.43;99600.25;116403;1303;22607;-70
2022/11/18 11:24:05;;;;;;;;;;;;;;;0.13;65.19;99599.73;116366;1284;22441;-70
2022/11/18 11:27:06;;;;;;;;;;;;;;;0.11;64.97;99600.27;116339;1285;22445;-69
2022/11/18 11:30:19;;;;;;;;;;;;;;;0.10;65.37;99598.21;116346;1302;22909;-70
2022/11/18 11:33:31;;;;;;;;;;;;;;;0.08;64.81;99600.29;116264;1290;22463;-67
2022/11/18 11:36:34;;;;;;;;;;;;;;;0.01;64.84;99593.82;116342;1303;22448;-70
2022/11/18 11:39:53;;;;;;;;;;;;;;;-0.06;64.98;99594.73;116383;1296;24393;-70
2022/11/18 11:42:48;;;;;;;;;;;;;;;-0.08;65.18;99593.55;116308;1290;22475;-69
2022/11/18 11:45:42;;;;;;;;;;;;;;;-0.05;65.62;99592.16;116335;1285;22454;-70
2022/11/18 11:48:38;;;;;;;;;;;;;;;-0.03;65.43;99594.54;116399;1303;25402;-68
2022/11/18 11:51:32;;;;;;;;;;;;;;;0.00;65.22;99593.83;116355;1284;22458;-70
2022/11/18 11:54:28;;;;;;;;;;;;;;;0.05;64.76;99592.94;116389;1293;22550;-69
2022/11/18 11:57:18;;;;;;;;;;;;;;;0.09;64.32;99597.52;116316;1303;22456;-69
2022/11/18 12:00:12;;;;;;;;;;;;;;;0.12;64.15;99595.98;116339;1302;22448;-69
2022/11/18 12:03:09;;;;;;;;;;;;;;;0.13;64.79;99595.45;116337;1291;25356;-69
2022/11/18 12:05:57;;;;;;;;;;;;;;;0.17;64.24;99600.56;116346;1302;22544;-69
2022/11/18 12:08:53;;;;;;;;;;;;;;;0.16;64.02;99599.89;116326;1285;22415;-68
2022/11/18 12:11:51;;;;;;;;;;;;;;;0.12;64.35;99599.05;116308;1285;22465;-69
2022/11/18 12:14:42;;;;;;;;;;;;;;;0.10;64.75;99600.79;116325;1294;22455;-68
2022/11/18 12:17:32;;;;;;;;;;;;;;;0.07;64.97;99599.95;116341;1281;25401;-69
2022/11/18 12:20:42;;;;;;;;;;;;;;;0.04;65.11;99599.64;116263;1286;22534;-69
2022/11/18 12:23:33;;;;;;;;;;;;;;;-0.03;65.34;99604.48;116361;1303;22456;-68
2022/11/18 12:26:36;;;;;;;;;;;;;;;-0.08;65.39;99603.84;116323;1276;24241;-70
2022/11/18 12:29:35;;;;;;;;;;;;;;;-0.13;65.90;99607.64;116331;1299;22451;-70
2022/11/18 12:32:41;;;;;;;;;;;;;;;-0.17;66.23;99606.80;116355;1276;22458;-68
2022/11/18 12:35:30;;;;;;;;;;;;;;;-0.19;66.51;99610.43;116373;1299;22448;-69
2022/11/18 12:38:40;;;;;;;;;;;;;;;-0.20;66.88;99612.14;116370;1303;25364;-68
2022/11/18 12:45:02;;;;;;;;;;;;;;;-0.19;67.13;99610.09;116346;1284;22835;-69
2022/11/18 12:48:02;;;;;;;;;;;;;;;-0.20;66.77;99605.80;116340;1303;22436;-69
2022/11/18 12:50:53;;;;;;;;;;;;;;;-0.20;66.30;99606.48;116319;1285;22472;-69
2022/11/18 12:53:44;;;;;;;;;;;;;;;-0.17;65.90;99607.84;116336;1303;22439;-68
2022/11/18 12:56:36;;;;;;;;;;;;;;;-0.11;65.92;99610.37;116314;1303;22442;-70
2022/11/18 12:59:30;;;;;;;;;;;;;;;-0.05;65.72;99608.27;116343;1282;25386;-70
2022/11/18 13:02:25;;;;;;;;;;;;;;;-0.05;64.89;99609.12;116066;1282;352094;-70
2022/11/18 13:05:19;;;;;;;;;;;;;;;-0.06;65.17;99605.70;116364;1277;22437;-69
2022/11/18 13:08:13;;;;;;;;;;;;;;;-0.08;65.01;99603.84;116322;1303;25365;-67
2022/11/18 13:20:38;;;;;;;;;;;;;;;-0.22;65.99;99608.90;116316;1284;22437;-70
2022/11/18 13:26:39;;;;;;;;;;;;;;;-0.31;66.57;99611.88;116321;1303;22445;-71
2022/11/18 13:29:37;;;;;;;;;;;;;;;-0.35;66.52;99609.16;116329;1270;22438;-68
2022/11/18 13:32:25;;;;;;;;;;;;;;;-0.38;66.37;99612.95;116341;1303;22564;-69
2022/11/18 13:35:18;;;;;;;;;;;;;;;-0.44;66.50;99614.52;116326;1303;22514;-70
2022/11/18 13:38:16;;;;;;;;;;;;;;;-0.50;66.97;99619.18;116255;1300;22533;-69
2022/11/18 13:41:22;;;;;;;;;;;;;;;-0.57;67.31;99623.84;116330;1303;22461;-69
2022/11/18 13:44:17;;;;;;;;;;;;;;;-0.60;67.60;99627.29;116340;1284;22458;-69
2022/11/18 13:47:10;;;;;;;;;;;;;;;-0.62;67.84;99631.74;116375;1282;22458;-68
2022/11/18 13:50:04;;;;;;;;;;;;;;;-0.64;67.62;99628.33;116349;1292;22453;-69
2022/11/18 13:53:05;;;;;;;;;;;;;;;-0.64;67.87;99624.04;116337;1303;22450;-69
2022/11/18 13:55:54;;;;;;;;;;;;;;;-0.60;67.65;99628.64;116361;1303;22536;-68
2022/11/18 13:58:51;;;;;;;;;;;;;;;-0.55;67.71;99629.83;116304;1303;25821;-71
2022/11/18 14:01:39;;;;;;;;;;;;;;;-0.52;67.75;99632.38;116299;1303;22461;-70
2022/11/18 14:04:29;;;;;;;;;;;;;;;-0.51;67.60;99633.73;116312;1290;22784;-69
2022/11/18 14:07:30;;;;;;;;;;;;;;;-0.53;67.89;99632.23;116393;1297;22440;-71
2022/11/18 14:10:18;;;;;;;;;;;;;;;-0.57;68.38;99632.40;116298;1302;22472;-69
2022/11/18 14:13:13;;;;;;;;;;;;;;;-0.59;68.32;99632.60;116299;1287;22514;-67
2022/11/18 14:16:02;;;;;;;;;;;;;;;-0.63;68.53;99633.46;116377;1293;22446;-69
2022/11/18 14:18:52;;;;;;;;;;;;;;;-0.66;68.61;99638.95;116368;1300;22426;-69
2022/11/18 14:21:40;;;;;;;;;;;;;;;-0.71;68.71;99646.35;116356;1277;22456;-71
2022/11/18 14:24:31;;;;;;;;;;;;;;;-0.77;68.78;99650.64;116359;1303;22458;-66
2022/11/18 14:27:38;;;;;;;;;;;;;;;-0.82;69.14;99651.53;116346;1284;22441;-68
2022/11/18 14:30:34;;;;;;;;;;;;;;;-0.87;69.08;99657.71;116334;1303;22463;-69
2022/11/18 14:33:24;;;;;;;;;;;;;;;-0.92;69.34;99662.69;116332;1284;22523;-71
2022/11/18 14:36:14;;;;;;;;;;;;;;;-0.96;69.78;99666.98;116343;1274;24292;-70
2022/11/18 14:39:03;;;;;;;;;;;;;;;-0.99;69.96;99670.92;116366;1288;24260;-68
2022/11/18 14:41:51;;;;;;;;;;;;;;;-1.05;70.13;99669.39;116337;1303;25898;-68
2022/11/18 14:44:42;;;;;;;;;;;;;;;-1.10;70.27;99669.05;116297;1294;22446;-67
2022/11/18 14:47:31;;;;;;;;;;;;;;;-1.14;70.71;99673.70;116336;1303;22455;-68
2022/11/18 14:50:29;;;;;;;;;;;;;;;-1.15;71.12;99671.11;116284;1278;22481;-69
2022/11/18 14:53:25;;;;;;;;;;;;;;;-1.10;71.50;99672.31;116336;1303;22431;-68
2022/11/18 14:56:16;;;;;;;;;;;;;;;-1.07;71.67;99677.45;116367;1303;22442;-70
2022/11/18 14:59:09;;;;;;;;;;;;;;;-1.01;71.66;99680.00;116385;1284;22439;-69
2022/11/18 15:02:00;;;;;;;;;;;;;;;-0.97;71.70;99680.16;116337;1302;22446;-68
2022/11/18 15:04:51;;;;;;;;;;;;;;;-0.97;71.84;99683.08;116324;1301;25348;-68
2022/11/18 15:07:41;;;;;;;;;;;;;;;-0.99;72.10;99684.79;116346;1296;22482;-69
2022/11/18 15:10:32;;;;;;;;;;;;;;;-0.99;72.24;99685.98;116358;1300;22465;-69
2022/11/18 15:13:24;;;;;;;;;;;;;;;-1.00;72.47;99690.27;116341;1294;22468;-68
2022/11/18 15:16:16;;;;;;;;;;;;;;;-1.03;72.91;99690.95;116293;1303;22438;-69
2022/11/18 15:19:07;;;;;;;;;;;;;;;-1.08;73.01;99696.10;116360;1303;22466;-68